sensor_id;sensor_type;location;lat;lon;timestamp;P1;durP1;ratioP1;P2;durP2;ratioP2
23388;SDS011;11867;51.198;11.966;2024-01-16T00:01:20;3.92;;;1.75;;
23388;SDS011;11867;51.198;11.966;2024-01-16T00:02:44;3.55;;;1.80;;
23388;SDS011;11867;51.198;11.966;2024-01-16T00:04:07;6.43;;;1.80;;
23388;SDS011;11867;51.198;11.966;2024-01-16T00:05:29;8.93;;;2.17;;
23388;SDS011;11867;51.198;11.966;2024-01-16T00:06:52;6.05;;;1.80;;
23388;SDS011;11867;51.198;11.966;2024-01-16T00:08:14;4.57;;;1.83;;
23388;SDS011;11867;51.198;11.966;2024-01-16T00:09:37;4.95;;;1.50;;
23388;SDS011;11867;51.198;11.966;2024-01-16T00:11:01;7.25;;;1.92;;
23388;SDS011;11867;51.198;11.966;2024-01-16T00:12:24;5.82;;;1.60;;
23388;SDS011;11867;51.198;11.966;2024-01-16T00:13:46;6.18;;;2.05;;
23388;SDS011;11867;51.198;11.966;2024-01-16T00:15:10;3.50;;;1.65;;
23388;SDS011;11867;51.198;11.966;2024-01-16T00:16:32;4.90;;;1.55;;
23388;SDS011;11867;51.198;11.966;2024-01-16T00:17:56;4.22;;;1.80;;
23388;SDS011;11867;51.198;11.966;2024-01-16T00:19:18;5.72;;;1.90;;
23388;SDS011;11867;51.198;11.966;2024-01-16T00:20:41;6.57;;;1.80;;
23388;SDS011;11867;51.198;11.966;2024-01-16T00:22:03;3.28;;;1.83;;
23388;SDS011;11867;51.198;11.966;2024-01-16T00:23:28;5.07;;;1.90;;
23388;SDS011;11867;51.198;11.966;2024-01-16T00:24:50;4.45;;;1.75;;
23388;SDS011;11867;51.198;11.966;2024-01-16T00:26:19;5.68;;;1.60;;
23388;SDS011;11867;51.198;11.966;2024-01-16T00:27:41;8.25;;;1.80;;
23388;SDS011;11867;51.198;11.966;2024-01-16T00:29:07;6.32;;;2.05;;
23388;SDS011;11867;51.198;11.966;2024-01-16T00:30:30;8.85;;;1.90;;
23388;SDS011;11867;51.198;11.966;2024-01-16T00:31:53;6.25;;;1.92;;
23388;SDS011;11867;51.198;11.966;2024-01-16T00:33:16;2.58;;;1.52;;
23388;SDS011;11867;51.198;11.966;2024-01-16T00:34:39;4.97;;;1.90;;
23388;SDS011;11867;51.198;11.966;2024-01-16T00:36:02;6.15;;;1.45;;
23388;SDS011;11867;51.198;11.966;2024-01-16T00:37:29;3.08;;;1.85;;
23388;SDS011;11867;51.198;11.966;2024-01-16T00:38:51;5.40;;;1.77;;
23388;SDS011;11867;51.198;11.966;2024-01-16T00:40:13;5.25;;;2.10;;
23388;SDS011;11867;51.198;11.966;2024-01-16T00:41:36;4.85;;;1.55;;
23388;SDS011;11867;51.198;11.966;2024-01-16T00:42:58;3.60;;;1.88;;
23388;SDS011;11867;51.198;11.966;2024-01-16T00:44:20;3.65;;;1.67;;
23388;SDS011;11867;51.198;11.966;2024-01-16T00:45:43;4.93;;;1.80;;
23388;SDS011;11867;51.198;11.966;2024-01-16T00:47:06;4.70;;;1.70;;
23388;SDS011;11867;51.198;11.966;2024-01-16T00:48:31;4.68;;;1.67;;
23388;SDS011;11867;51.198;11.966;2024-01-16T00:49:53;3.67;;;2.10;;
23388;SDS011;11867;51.198;11.966;2024-01-16T00:51:16;4.38;;;1.77;;
23388;SDS011;11867;51.198;11.966;2024-01-16T00:52:37;4.18;;;1.75;;
23388;SDS011;11867;51.198;11.966;2024-01-16T00:54:00;5.90;;;2.03;;
23388;SDS011;11867;51.198;11.966;2024-01-16T00:55:22;3.22;;;1.60;;
23388;SDS011;11867;51.198;11.966;2024-01-16T00:56:45;5.82;;;1.70;;
23388;SDS011;11867;51.198;11.966;2024-01-16T00:58:07;3.85;;;1.90;;
23388;SDS011;11867;51.198;11.966;2024-01-16T00:59:30;3.25;;;1.60;;
23388;SDS011;11867;51.198;11.966;2024-01-16T01:00:52;5.13;;;1.80;;
23388;SDS011;11867;51.198;11.966;2024-01-16T01:02:16;4.53;;;1.58;;
23388;SDS011;11867;51.198;11.966;2024-01-16T01:03:39;5.90;;;1.42;;
23388;SDS011;11867;51.198;11.966;2024-01-16T01:05:02;4.65;;;1.45;;
23388;SDS011;11867;51.198;11.966;2024-01-16T01:06:27;7.18;;;1.75;;
23388;SDS011;11867;51.198;11.966;2024-01-16T01:07:50;4.43;;;1.65;;
23388;SDS011;11867;51.198;11.966;2024-01-16T01:09:12;3.72;;;1.60;;
23388;SDS011;11867;51.198;11.966;2024-01-16T01:10:35;5.25;;;1.50;;
23388;SDS011;11867;51.198;11.966;2024-01-16T01:11:57;6.07;;;1.50;;
23388;SDS011;11867;51.198;11.966;2024-01-16T01:13:22;4.47;;;1.88;;
23388;SDS011;11867;51.198;11.966;2024-01-16T01:14:46;3.90;;;1.65;;
23388;SDS011;11867;51.198;11.966;2024-01-16T01:16:09;3.30;;;1.50;;
23388;SDS011;11867;51.198;11.966;2024-01-16T01:17:31;2.95;;;1.70;;
23388;SDS011;11867;51.198;11.966;2024-01-16T01:18:56;3.35;;;1.60;;
23388;SDS011;11867;51.198;11.966;2024-01-16T01:20:18;2.25;;;1.33;;
23388;SDS011;11867;51.198;11.966;2024-01-16T01:21:41;3.28;;;2.10;;
23388;SDS011;11867;51.198;11.966;2024-01-16T01:23:03;3.75;;;1.52;;
23388;SDS011;11867;51.198;11.966;2024-01-16T01:24:26;3.33;;;1.58;;
23388;SDS011;11867;51.198;11.966;2024-01-16T01:25:48;3.45;;;1.50;;
23388;SDS011;11867;51.198;11.966;2024-01-16T01:27:11;3.88;;;1.63;;
23388;SDS011;11867;51.198;11.966;2024-01-16T01:28:33;3.10;;;1.52;;
23388;SDS011;11867;51.198;11.966;2024-01-16T01:29:57;2.50;;;1.33;;
23388;SDS011;11867;51.198;11.966;2024-01-16T01:31:19;2.13;;;1.25;;
23388;SDS011;11867;51.198;11.966;2024-01-16T01:32:42;3.58;;;1.40;;
23388;SDS011;11867;51.198;11.966;2024-01-16T01:34:07;3.28;;;1.60;;
23388;SDS011;11867;51.198;11.966;2024-01-16T01:35:30;2.42;;;1.30;;
23388;SDS011;11867;51.198;11.966;2024-01-16T01:36:52;6.45;;;1.30;;
23388;SDS011;11867;51.198;11.966;2024-01-16T01:38:15;4.03;;;1.48;;
23388;SDS011;11867;51.198;11.966;2024-01-16T01:39:37;6.40;;;1.60;;
23388;SDS011;11867;51.198;11.966;2024-01-16T01:41:00;3.20;;;1.20;;
23388;SDS011;11867;51.198;11.966;2024-01-16T01:42:22;1.80;;;0.85;;
23388;SDS011;11867;51.198;11.966;2024-01-16T01:43:45;6.57;;;1.55;;
23388;SDS011;11867;51.198;11.966;2024-01-16T01:45:07;3.80;;;1.40;;
23388;SDS011;11867;51.198;11.966;2024-01-16T01:46:31;3.85;;;1.38;;
23388;SDS011;11867;51.198;11.966;2024-01-16T01:47:54;2.10;;;1.23;;
23388;SDS011;11867;51.198;11.966;2024-01-16T01:49:19;2.42;;;1.20;;
23388;SDS011;11867;51.198;11.966;2024-01-16T01:50:42;3.65;;;1.52;;
23388;SDS011;11867;51.198;11.966;2024-01-16T01:52:05;2.45;;;1.55;;
23388;SDS011;11867;51.198;11.966;2024-01-16T01:53:27;3.45;;;1.10;;
23388;SDS011;11867;51.198;11.966;2024-01-16T01:54:53;5.85;;;1.50;;
23388;SDS011;11867;51.198;11.966;2024-01-16T01:56:15;3.88;;;1.17;;
23388;SDS011;11867;51.198;11.966;2024-01-16T01:57:40;2.95;;;1.38;;
23388;SDS011;11867;51.198;11.966;2024-01-16T01:59:04;1.92;;;1.20;;
23388;SDS011;11867;51.198;11.966;2024-01-16T02:00:29;4.45;;;1.23;;
23388;SDS011;11867;51.198;11.966;2024-01-16T02:01:51;4.63;;;1.10;;
23388;SDS011;11867;51.198;11.966;2024-01-16T02:03:14;3.45;;;1.10;;
23388;SDS011;11867;51.198;11.966;2024-01-16T02:04:38;2.92;;;0.95;;
23388;SDS011;11867;51.198;11.966;2024-01-16T02:06:02;2.30;;;1.42;;
23388;SDS011;11867;51.198;11.966;2024-01-16T02:07:24;2.88;;;0.93;;
23388;SDS011;11867;51.198;11.966;2024-01-16T02:08:47;4.97;;;1.30;;
23388;SDS011;11867;51.198;11.966;2024-01-16T02:10:10;4.63;;;1.40;;
23388;SDS011;11867;51.198;11.966;2024-01-16T02:11:35;3.90;;;1.35;;
23388;SDS011;11867;51.198;11.966;2024-01-16T02:12:57;3.83;;;1.23;;
23388;SDS011;11867;51.198;11.966;2024-01-16T02:14:20;4.30;;;1.30;;
23388;SDS011;11867;51.198;11.966;2024-01-16T02:15:42;4.05;;;1.20;;
23388;SDS011;11867;51.198;11.966;2024-01-16T02:17:05;3.63;;;1.30;;
23388;SDS011;11867;51.198;11.966;2024-01-16T02:18:27;2.88;;;1.02;;
23388;SDS011;11867;51.198;11.966;2024-01-16T02:19:52;5.18;;;1.30;;
23388;SDS011;11867;51.198;11.966;2024-01-16T02:21:15;4.53;;;1.45;;
23388;SDS011;11867;51.198;11.966;2024-01-16T02:22:41;2.88;;;1.20;;
23388;SDS011;11867;51.198;11.966;2024-01-16T02:24:10;5.97;;;1.40;;
23388;SDS011;11867;51.198;11.966;2024-01-16T02:25:34;3.70;;;1.45;;
23388;SDS011;11867;51.198;11.966;2024-01-16T02:26:56;2.25;;;1.10;;
23388;SDS011;11867;51.198;11.966;2024-01-16T02:28:19;5.28;;;1.48;;
23388;SDS011;11867;51.198;11.966;2024-01-16T02:29:42;3.03;;;1.60;;
23388;SDS011;11867;51.198;11.966;2024-01-16T02:31:05;6.78;;;2.38;;
23388;SDS011;11867;51.198;11.966;2024-01-16T02:32:28;3.03;;;1.40;;
23388;SDS011;11867;51.198;11.966;2024-01-16T02:33:51;2.28;;;1.38;;
23388;SDS011;11867;51.198;11.966;2024-01-16T02:35:14;3.97;;;1.30;;
23388;SDS011;11867;51.198;11.966;2024-01-16T02:36:38;4.90;;;1.52;;
23388;SDS011;11867;51.198;11.966;2024-01-16T02:38:00;3.45;;;1.55;;
23388;SDS011;11867;51.198;11.966;2024-01-16T02:39:25;2.85;;;1.60;;
23388;SDS011;11867;51.198;11.966;2024-01-16T02:40:47;4.05;;;1.30;;
23388;SDS011;11867;51.198;11.966;2024-01-16T02:42:09;4.50;;;1.60;;
23388;SDS011;11867;51.198;11.966;2024-01-16T02:43:32;2.95;;;1.40;;
23388;SDS011;11867;51.198;11.966;2024-01-16T02:44:55;3.10;;;1.67;;
23388;SDS011;11867;51.198;11.966;2024-01-16T02:46:17;2.55;;;1.35;;
23388;SDS011;11867;51.198;11.966;2024-01-16T02:47:40;3.03;;;1.33;;
23388;SDS011;11867;51.198;11.966;2024-01-16T02:49:02;4.07;;;1.67;;
23388;SDS011;11867;51.198;11.966;2024-01-16T02:50:25;2.33;;;1.67;;
23388;SDS011;11867;51.198;11.966;2024-01-16T02:51:47;3.65;;;1.67;;
23388;SDS011;11867;51.198;11.966;2024-01-16T02:53:10;2.58;;;1.38;;
23388;SDS011;11867;51.198;11.966;2024-01-16T02:54:33;4.57;;;1.92;;
23388;SDS011;11867;51.198;11.966;2024-01-16T02:55:56;3.55;;;1.83;;
23388;SDS011;11867;51.198;11.966;2024-01-16T02:57:20;3.58;;;1.58;;
23388;SDS011;11867;51.198;11.966;2024-01-16T02:58:43;5.88;;;1.90;;
23388;SDS011;11867;51.198;11.966;2024-01-16T03:00:05;5.10;;;1.90;;
23388;SDS011;11867;51.198;11.966;2024-01-16T03:01:30;4.82;;;1.45;;
23388;SDS011;11867;51.198;11.966;2024-01-16T03:02:52;5.32;;;2.40;;
23388;SDS011;11867;51.198;11.966;2024-01-16T03:04:16;4.68;;;2.05;;
23388;SDS011;11867;51.198;11.966;2024-01-16T03:05:38;4.22;;;1.80;;
23388;SDS011;11867;51.198;11.966;2024-01-16T03:07:01;3.50;;;1.38;;
23388;SDS011;11867;51.198;11.966;2024-01-16T03:08:25;2.50;;;1.42;;
23388;SDS011;11867;51.198;11.966;2024-01-16T03:09:49;3.80;;;1.80;;
23388;SDS011;11867;51.198;11.966;2024-01-16T03:11:11;5.13;;;1.63;;
23388;SDS011;11867;51.198;11.966;2024-01-16T03:12:34;6.68;;;1.60;;
23388;SDS011;11867;51.198;11.966;2024-01-16T03:13:56;4.20;;;1.77;;
23388;SDS011;11867;51.198;11.966;2024-01-16T03:15:20;5.20;;;1.50;;
23388;SDS011;11867;51.198;11.966;2024-01-16T03:16:42;2.63;;;1.50;;
23388;SDS011;11867;51.198;11.966;2024-01-16T03:18:06;5.28;;;1.48;;
23388;SDS011;11867;51.198;11.966;2024-01-16T03:19:28;4.07;;;1.63;;
23388;SDS011;11867;51.198;11.966;2024-01-16T03:20:51;8.43;;;1.75;;
23388;SDS011;11867;51.198;11.966;2024-01-16T03:22:13;2.40;;;1.20;;
23388;SDS011;11867;51.198;11.966;2024-01-16T03:23:36;2.75;;;1.50;;
23388;SDS011;11867;51.198;11.966;2024-01-16T03:24:59;7.10;;;1.63;;
23388;SDS011;11867;51.198;11.966;2024-01-16T03:26:24;2.95;;;1.25;;
23388;SDS011;11867;51.198;11.966;2024-01-16T03:27:46;4.50;;;1.20;;
23388;SDS011;11867;51.198;11.966;2024-01-16T03:29:09;3.28;;;1.30;;
23388;SDS011;11867;51.198;11.966;2024-01-16T03:30:32;3.38;;;1.20;;
23388;SDS011;11867;51.198;11.966;2024-01-16T03:31:55;5.32;;;1.35;;
23388;SDS011;11867;51.198;11.966;2024-01-16T03:33:17;5.63;;;1.58;;
23388;SDS011;11867;51.198;11.966;2024-01-16T03:34:41;3.80;;;1.25;;
23388;SDS011;11867;51.198;11.966;2024-01-16T03:36:03;4.07;;;1.40;;
23388;SDS011;11867;51.198;11.966;2024-01-16T03:37:27;3.70;;;1.20;;
23388;SDS011;11867;51.198;11.966;2024-01-16T03:38:49;4.53;;;1.67;;
23388;SDS011;11867;51.198;11.966;2024-01-16T03:40:13;4.82;;;1.65;;
23388;SDS011;11867;51.198;11.966;2024-01-16T03:41:35;4.53;;;1.75;;
23388;SDS011;11867;51.198;11.966;2024-01-16T03:42:58;4.03;;;1.50;;
23388;SDS011;11867;51.198;11.966;2024-01-16T03:44:20;4.70;;;1.70;;
23388;SDS011;11867;51.198;11.966;2024-01-16T03:45:43;5.25;;;1.33;;
23388;SDS011;11867;51.198;11.966;2024-01-16T03:47:06;8.00;;;1.60;;
23388;SDS011;11867;51.198;11.966;2024-01-16T03:48:29;5.40;;;1.40;;
23388;SDS011;11867;51.198;11.966;2024-01-16T03:49:52;3.15;;;1.20;;
23388;SDS011;11867;51.198;11.966;2024-01-16T03:51:14;4.65;;;1.70;;
23388;SDS011;11867;51.198;11.966;2024-01-16T03:52:37;2.40;;;1.15;;
23388;SDS011;11867;51.198;11.966;2024-01-16T03:54:00;4.80;;;1.60;;
23388;SDS011;11867;51.198;11.966;2024-01-16T03:55:23;5.32;;;1.70;;
23388;SDS011;11867;51.198;11.966;2024-01-16T03:56:46;5.80;;;1.90;;
23388;SDS011;11867;51.198;11.966;2024-01-16T03:58:08;6.18;;;1.80;;
23388;SDS011;11867;51.198;11.966;2024-01-16T03:59:36;5.38;;;1.80;;
23388;SDS011;11867;51.198;11.966;2024-01-16T04:00:58;3.65;;;1.90;;
23388;SDS011;11867;51.198;11.966;2024-01-16T04:02:21;6.50;;;1.80;;
23388;SDS011;11867;51.198;11.966;2024-01-16T04:03:43;3.75;;;1.80;;
23388;SDS011;11867;51.198;11.966;2024-01-16T04:05:06;5.47;;;2.08;;
23388;SDS011;11867;51.198;11.966;2024-01-16T04:06:29;5.55;;;2.10;;
23388;SDS011;11867;51.198;11.966;2024-01-16T04:07:53;7.88;;;2.53;;
23388;SDS011;11867;51.198;11.966;2024-01-16T04:09:16;5.28;;;2.08;;
23388;SDS011;11867;51.198;11.966;2024-01-16T04:10:40;4.57;;;2.05;;
23388;SDS011;11867;51.198;11.966;2024-01-16T04:12:03;2.97;;;1.80;;
23388;SDS011;11867;51.198;11.966;2024-01-16T04:13:27;5.13;;;2.00;;
23388;SDS011;11867;51.198;11.966;2024-01-16T04:14:49;6.20;;;1.83;;
23388;SDS011;11867;51.198;11.966;2024-01-16T04:16:12;6.53;;;1.70;;
23388;SDS011;11867;51.198;11.966;2024-01-16T04:17:34;4.53;;;1.92;;
23388;SDS011;11867;51.198;11.966;2024-01-16T04:18:57;4.22;;;1.70;;
23388;SDS011;11867;51.198;11.966;2024-01-16T04:20:19;4.80;;;1.90;;
23388;SDS011;11867;51.198;11.966;2024-01-16T04:21:42;4.45;;;1.75;;
23388;SDS011;11867;51.198;11.966;2024-01-16T04:23:04;3.72;;;1.98;;
23388;SDS011;11867;51.198;11.966;2024-01-16T04:24:27;6.13;;;2.03;;
23388;SDS011;11867;51.198;11.966;2024-01-16T04:25:51;5.28;;;1.88;;
23388;SDS011;11867;51.198;11.966;2024-01-16T04:27:14;7.85;;;2.08;;
23388;SDS011;11867;51.198;11.966;2024-01-16T04:28:36;8.05;;;2.00;;
23388;SDS011;11867;51.198;11.966;2024-01-16T04:29:59;3.58;;;2.05;;
23388;SDS011;11867;51.198;11.966;2024-01-16T04:31:21;7.43;;;2.05;;
23388;SDS011;11867;51.198;11.966;2024-01-16T04:32:47;6.85;;;1.92;;
23388;SDS011;11867;51.198;11.966;2024-01-16T04:34:09;4.95;;;1.90;;
23388;SDS011;11867;51.198;11.966;2024-01-16T04:35:33;3.25;;;1.80;;
23388;SDS011;11867;51.198;11.966;2024-01-16T04:36:55;9.20;;;2.08;;
23388;SDS011;11867;51.198;11.966;2024-01-16T04:38:18;3.42;;;1.80;;
23388;SDS011;11867;51.198;11.966;2024-01-16T04:39:40;7.82;;;2.10;;
23388;SDS011;11867;51.198;11.966;2024-01-16T04:41:04;2.72;;;1.65;;
23388;SDS011;11867;51.198;11.966;2024-01-16T04:42:26;5.60;;;2.10;;
23388;SDS011;11867;51.198;11.966;2024-01-16T04:43:49;2.67;;;1.77;;
23388;SDS011;11867;51.198;11.966;2024-01-16T04:45:11;6.28;;;2.20;;
23388;SDS011;11867;51.198;11.966;2024-01-16T04:46:37;7.03;;;1.90;;
23388;SDS011;11867;51.198;11.966;2024-01-16T04:47:59;2.67;;;1.77;;
23388;SDS011;11867;51.198;11.966;2024-01-16T04:49:23;5.70;;;2.15;;
23388;SDS011;11867;51.198;11.966;2024-01-16T04:50:45;5.88;;;2.22;;
23388;SDS011;11867;51.198;11.966;2024-01-16T04:52:09;3.70;;;1.92;;
23388;SDS011;11867;51.198;11.966;2024-01-16T04:53:31;4.45;;;2.00;;
23388;SDS011;11867;51.198;11.966;2024-01-16T04:54:54;4.22;;;1.77;;
23388;SDS011;11867;51.198;11.966;2024-01-16T04:56:17;3.53;;;2.05;;
23388;SDS011;11867;51.198;11.966;2024-01-16T04:57:41;4.88;;;1.80;;
23388;SDS011;11867;51.198;11.966;2024-01-16T04:59:04;7.57;;;2.22;;
23388;SDS011;11867;51.198;11.966;2024-01-16T05:00:27;4.45;;;2.15;;
23388;SDS011;11867;51.198;11.966;2024-01-16T05:01:50;3.75;;;2.17;;
23388;SDS011;11867;51.198;11.966;2024-01-16T05:03:12;6.22;;;2.20;;
23388;SDS011;11867;51.198;11.966;2024-01-16T05:04:36;5.30;;;2.30;;
23388;SDS011;11867;51.198;11.966;2024-01-16T05:05:59;5.75;;;2.15;;
23388;SDS011;11867;51.198;11.966;2024-01-16T05:07:23;3.60;;;2.15;;
23388;SDS011;11867;51.198;11.966;2024-01-16T05:08:46;6.03;;;2.22;;
23388;SDS011;11867;51.198;11.966;2024-01-16T05:10:09;5.20;;;2.53;;
23388;SDS011;11867;51.198;11.966;2024-01-16T05:11:34;3.47;;;2.30;;
23388;SDS011;11867;51.198;11.966;2024-01-16T05:12:58;6.32;;;2.08;;
23388;SDS011;11867;51.198;11.966;2024-01-16T05:14:20;4.07;;;2.22;;
23388;SDS011;11867;51.198;11.966;2024-01-16T05:15:46;7.22;;;2.30;;
23388;SDS011;11867;51.198;11.966;2024-01-16T05:17:08;6.40;;;2.63;;
23388;SDS011;11867;51.198;11.966;2024-01-16T05:18:31;6.45;;;2.63;;
23388;SDS011;11867;51.198;11.966;2024-01-16T05:19:55;7.32;;;2.58;;
23388;SDS011;11867;51.198;11.966;2024-01-16T05:21:19;5.38;;;2.55;;
23388;SDS011;11867;51.198;11.966;2024-01-16T05:22:42;3.47;;;2.03;;
23388;SDS011;11867;51.198;11.966;2024-01-16T05:24:04;4.15;;;2.17;;
23388;SDS011;11867;51.198;11.966;2024-01-16T05:25:27;4.55;;;2.40;;
23388;SDS011;11867;51.198;11.966;2024-01-16T05:26:50;4.68;;;2.22;;
23388;SDS011;11867;51.198;11.966;2024-01-16T05:28:13;6.20;;;2.17;;
23388;SDS011;11867;51.198;11.966;2024-01-16T05:29:35;6.80;;;2.50;;
23388;SDS011;11867;51.198;11.966;2024-01-16T05:31:02;5.35;;;2.20;;
23388;SDS011;11867;51.198;11.966;2024-01-16T05:32:24;8.27;;;2.78;;
23388;SDS011;11867;51.198;11.966;2024-01-16T05:33:48;7.93;;;2.38;;
23388;SDS011;11867;51.198;11.966;2024-01-16T05:35:10;2.42;;;2.03;;
23388;SDS011;11867;51.198;11.966;2024-01-16T05:36:33;6.43;;;2.38;;
23388;SDS011;11867;51.198;11.966;2024-01-16T05:37:55;5.63;;;2.15;;
23388;SDS011;11867;51.198;11.966;2024-01-16T05:39:18;3.97;;;2.30;;
23388;SDS011;11867;51.198;11.966;2024-01-16T05:40:40;5.35;;;2.28;;
23388;SDS011;11867;51.198;11.966;2024-01-16T05:42:04;4.15;;;2.28;;
23388;SDS011;11867;51.198;11.966;2024-01-16T05:43:26;5.78;;;2.35;;
23388;SDS011;11867;51.198;11.966;2024-01-16T05:44:54;5.88;;;2.00;;
23388;SDS011;11867;51.198;11.966;2024-01-16T05:46:16;5.05;;;1.75;;
23388;SDS011;11867;51.198;11.966;2024-01-16T05:47:39;5.70;;;2.33;;
23388;SDS011;11867;51.198;11.966;2024-01-16T05:49:01;6.30;;;2.17;;
23388;SDS011;11867;51.198;11.966;2024-01-16T05:50:25;3.05;;;2.03;;
23388;SDS011;11867;51.198;11.966;2024-01-16T05:51:48;4.15;;;1.95;;
23388;SDS011;11867;51.198;11.966;2024-01-16T05:53:11;7.40;;;2.15;;
23388;SDS011;11867;51.198;11.966;2024-01-16T05:54:33;4.60;;;2.80;;
23388;SDS011;11867;51.198;11.966;2024-01-16T05:55:56;8.75;;;2.35;;
23388;SDS011;11867;51.198;11.966;2024-01-16T05:57:20;5.28;;;2.00;;
23388;SDS011;11867;51.198;11.966;2024-01-16T05:58:42;5.32;;;2.17;;
23388;SDS011;11867;51.198;11.966;2024-01-16T06:00:05;4.45;;;2.00;;
23388;SDS011;11867;51.198;11.966;2024-01-16T06:01:28;9.43;;;2.40;;
23388;SDS011;11867;51.198;11.966;2024-01-16T06:02:51;7.38;;;2.55;;
23388;SDS011;11867;51.198;11.966;2024-01-16T06:04:14;5.70;;;2.38;;
23388;SDS011;11867;51.198;11.966;2024-01-16T06:05:36;4.78;;;2.38;;
23388;SDS011;11867;51.198;11.966;2024-01-16T06:06:59;8.23;;;2.47;;
23388;SDS011;11867;51.198;11.966;2024-01-16T06:08:23;4.68;;;2.33;;
23388;SDS011;11867;51.198;11.966;2024-01-16T06:09:46;6.75;;;2.22;;
23388;SDS011;11867;51.198;11.966;2024-01-16T06:11:08;5.40;;;2.45;;
23388;SDS011;11867;51.198;11.966;2024-01-16T06:12:36;5.28;;;2.33;;
23388;SDS011;11867;51.198;11.966;2024-01-16T06:13:58;3.88;;;2.40;;
23388;SDS011;11867;51.198;11.966;2024-01-16T06:15:21;7.30;;;2.45;;
23388;SDS011;11867;51.198;11.966;2024-01-16T06:16:45;5.85;;;2.30;;
23388;SDS011;11867;51.198;11.966;2024-01-16T06:18:07;4.82;;;2.22;;
23388;SDS011;11867;51.198;11.966;2024-01-16T06:19:30;3.45;;;1.98;;
23388;SDS011;11867;51.198;11.966;2024-01-16T06:20:52;5.10;;;2.25;;
23388;SDS011;11867;51.198;11.966;2024-01-16T06:22:15;4.18;;;2.25;;
23388;SDS011;11867;51.198;11.966;2024-01-16T06:23:37;5.25;;;2.05;;
23388;SDS011;11867;51.198;11.966;2024-01-16T06:25:00;10.18;;;2.60;;
23388;SDS011;11867;51.198;11.966;2024-01-16T06:26:23;8.13;;;2.45;;
23388;SDS011;11867;51.198;11.966;2024-01-16T06:27:47;6.70;;;1.90;;
23388;SDS011;11867;51.198;11.966;2024-01-16T06:29:09;4.95;;;2.13;;
23388;SDS011;11867;51.198;11.966;2024-01-16T06:30:45;3.72;;;2.13;;
23388;SDS011;11867;51.198;11.966;2024-01-16T06:32:07;8.68;;;1.88;;
23388;SDS011;11867;51.198;11.966;2024-01-16T06:33:30;4.97;;;1.90;;
23388;SDS011;11867;51.198;11.966;2024-01-16T06:34:52;6.40;;;2.78;;
23388;SDS011;11867;51.198;11.966;2024-01-16T06:36:15;3.30;;;1.98;;
23388;SDS011;11867;51.198;11.966;2024-01-16T06:37:37;6.57;;;1.98;;
23388;SDS011;11867;51.198;11.966;2024-01-16T06:39:00;5.57;;;1.98;;
23388;SDS011;11867;51.198;11.966;2024-01-16T06:40:22;5.03;;;2.08;;
23388;SDS011;11867;51.198;11.966;2024-01-16T06:41:45;6.38;;;1.98;;
23388;SDS011;11867;51.198;11.966;2024-01-16T06:43:08;5.60;;;2.17;;
23388;SDS011;11867;51.198;11.966;2024-01-16T06:44:32;5.07;;;1.88;;
23388;SDS011;11867;51.198;11.966;2024-01-16T06:45:54;9.10;;;2.70;;
23388;SDS011;11867;51.198;11.966;2024-01-16T06:47:17;4.75;;;1.90;;
23388;SDS011;11867;51.198;11.966;2024-01-16T06:48:39;6.35;;;2.28;;
23388;SDS011;11867;51.198;11.966;2024-01-16T06:50:02;5.93;;;2.20;;
23388;SDS011;11867;51.198;11.966;2024-01-16T06:51:25;7.93;;;2.72;;
23388;SDS011;11867;51.198;11.966;2024-01-16T06:52:48;8.32;;;2.50;;
23388;SDS011;11867;51.198;11.966;2024-01-16T06:54:09;3.50;;;2.10;;
23388;SDS011;11867;51.198;11.966;2024-01-16T06:55:32;5.65;;;2.47;;
23388;SDS011;11867;51.198;11.966;2024-01-16T06:56:54;5.60;;;2.17;;
23388;SDS011;11867;51.198;11.966;2024-01-16T06:58:19;7.25;;;2.22;;
23388;SDS011;11867;51.198;11.966;2024-01-16T06:59:41;4.50;;;2.25;;
23388;SDS011;11867;51.198;11.966;2024-01-16T07:01:04;3.70;;;2.13;;
23388;SDS011;11867;51.198;11.966;2024-01-16T07:02:26;4.95;;;2.45;;
23388;SDS011;11867;51.198;11.966;2024-01-16T07:03:49;6.22;;;2.22;;
23388;SDS011;11867;51.198;11.966;2024-01-16T07:05:11;5.25;;;2.30;;
23388;SDS011;11867;51.198;11.966;2024-01-16T07:06:34;7.35;;;2.50;;
23388;SDS011;11867;51.198;11.966;2024-01-16T07:07:56;7.43;;;2.35;;
23388;SDS011;11867;51.198;11.966;2024-01-16T07:09:19;7.40;;;2.80;;
23388;SDS011;11867;51.198;11.966;2024-01-16T07:10:42;8.82;;;2.55;;
23388;SDS011;11867;51.198;11.966;2024-01-16T07:12:05;3.75;;;2.20;;
23388;SDS011;11867;51.198;11.966;2024-01-16T07:13:28;7.75;;;2.47;;
23388;SDS011;11867;51.198;11.966;2024-01-16T07:14:51;6.93;;;2.83;;
23388;SDS011;11867;51.198;11.966;2024-01-16T07:16:13;4.35;;;2.17;;
23388;SDS011;11867;51.198;11.966;2024-01-16T07:17:41;10.52;;;3.00;;
23388;SDS011;11867;51.198;11.966;2024-01-16T07:19:03;3.95;;;2.58;;
23388;SDS011;11867;51.198;11.966;2024-01-16T07:20:29;6.63;;;2.60;;
23388;SDS011;11867;51.198;11.966;2024-01-16T07:21:51;4.07;;;2.60;;
23388;SDS011;11867;51.198;11.966;2024-01-16T07:23:14;7.10;;;2.55;;
23388;SDS011;11867;51.198;11.966;2024-01-16T07:24:36;10.70;;;2.67;;
23388;SDS011;11867;51.198;11.966;2024-01-16T07:25:58;8.80;;;2.88;;
23388;SDS011;11867;51.198;11.966;2024-01-16T07:27:22;9.77;;;2.55;;
23388;SDS011;11867;51.198;11.966;2024-01-16T07:28:47;8.13;;;3.10;;
23388;SDS011;11867;51.198;11.966;2024-01-16T07:30:09;10.50;;;3.13;;
23388;SDS011;11867;51.198;11.966;2024-01-16T07:31:33;3.28;;;2.50;;
23388;SDS011;11867;51.198;11.966;2024-01-16T07:32:55;6.50;;;2.85;;
23388;SDS011;11867;51.198;11.966;2024-01-16T07:34:18;4.25;;;2.83;;
23388;SDS011;11867;51.198;11.966;2024-01-16T07:35:43;5.53;;;3.00;;
23388;SDS011;11867;51.198;11.966;2024-01-16T07:37:09;7.03;;;3.30;;
23388;SDS011;11867;51.198;11.966;2024-01-16T07:38:31;7.60;;;3.10;;
23388;SDS011;11867;51.198;11.966;2024-01-16T07:39:55;8.48;;;3.22;;
23388;SDS011;11867;51.198;11.966;2024-01-16T07:41:17;5.65;;;3.42;;
23388;SDS011;11867;51.198;11.966;2024-01-16T07:42:40;5.80;;;3.25;;
23388;SDS011;11867;51.198;11.966;2024-01-16T07:44:03;7.25;;;3.50;;
23388;SDS011;11867;51.198;11.966;2024-01-16T07:45:26;8.10;;;3.40;;
23388;SDS011;11867;51.198;11.966;2024-01-16T07:46:48;10.35;;;3.70;;
23388;SDS011;11867;51.198;11.966;2024-01-16T07:48:11;8.70;;;3.85;;
23388;SDS011;11867;51.198;11.966;2024-01-16T07:49:33;6.82;;;2.90;;
23388;SDS011;11867;51.198;11.966;2024-01-16T07:50:56;6.55;;;2.95;;
23388;SDS011;11867;51.198;11.966;2024-01-16T07:52:18;9.45;;;3.40;;
23388;SDS011;11867;51.198;11.966;2024-01-16T07:53:41;6.45;;;3.25;;
23388;SDS011;11867;51.198;11.966;2024-01-16T07:55:03;6.57;;;3.47;;
23388;SDS011;11867;51.198;11.966;2024-01-16T07:56:26;9.93;;;3.65;;
23388;SDS011;11867;51.198;11.966;2024-01-16T07:57:48;9.48;;;3.20;;
23388;SDS011;11867;51.198;11.966;2024-01-16T07:59:12;7.60;;;3.35;;
23388;SDS011;11867;51.198;11.966;2024-01-16T08:00:35;7.80;;;3.22;;
23388;SDS011;11867;51.198;11.966;2024-01-16T08:01:58;8.30;;;3.58;;
23388;SDS011;11867;51.198;11.966;2024-01-16T08:03:20;6.45;;;3.00;;
23388;SDS011;11867;51.198;11.966;2024-01-16T08:04:43;8.23;;;3.63;;
23388;SDS011;11867;51.198;11.966;2024-01-16T08:06:05;6.75;;;2.90;;
23388;SDS011;11867;51.198;11.966;2024-01-16T08:07:28;8.68;;;3.42;;
23388;SDS011;11867;51.198;11.966;2024-01-16T08:08:50;5.80;;;3.00;;
23388;SDS011;11867;51.198;11.966;2024-01-16T08:10:13;4.72;;;3.10;;
23388;SDS011;11867;51.198;11.966;2024-01-16T08:11:39;7.65;;;3.10;;
23388;SDS011;11867;51.198;11.966;2024-01-16T08:13:04;7.82;;;3.28;;